createdAt,value
2022-11-16T00:00:10.773Z,5.10
2022-11-16T00:03:04.141Z,5.10
2022-11-16T00:05:33.531Z,5.10
2022-11-16T00:08:03.026Z,5.10
2022-11-16T00:10:31.379Z,5.10
2022-11-16T00:13:00.028Z,5.02
2022-11-16T00:15:31.015Z,5.00
2022-11-16T00:18:01.211Z,5.00
2022-11-16T00:20:29.315Z,5.00
2022-11-16T00:23:00.120Z,5.00
2022-11-16T00:25:28.053Z,4.90
2022-11-16T00:27:58.424Z,4.90
2022-11-16T00:30:28.345Z,4.90
2022-11-16T00:33:01.279Z,4.90
2022-11-16T00:35:31.118Z,4.90
2022-11-16T00:38:07.852Z,4.90
2022-11-16T00:40:39.185Z,4.90
2022-11-16T00:43:07.241Z,4.90
2022-11-16T00:45:42.937Z,4.86
2022-11-16T00:48:14.025Z,4.80
2022-11-16T00:50:45.447Z,4.80
2022-11-16T00:53:18.977Z,4.80
2022-11-16T00:55:49.863Z,4.80
2022-11-16T00:58:17.994Z,4.86
2022-11-16T01:00:55.330Z,4.90
2022-11-16T01:03:23.142Z,4.90
2022-11-16T01:05:51.131Z,4.90
2022-11-16T01:08:22.908Z,4.92
2022-11-16T01:10:52.815Z,4.92
2022-11-16T01:13:23.997Z,4.92
2022-11-16T01:15:52.925Z,4.90
2022-11-16T01:18:21.904Z,4.92
2022-11-16T01:20:51.215Z,4.90
2022-11-16T01:23:22.760Z,4.90
2022-11-16T01:26:01.711Z,4.90
2022-11-16T01:28:32.684Z,4.90
2022-11-16T01:31:02.648Z,4.90
2022-11-16T01:33:34.199Z,4.90
2022-11-16T01:36:02.474Z,4.98
2022-11-16T01:38:31.929Z,5.00
2022-11-16T01:41:01.431Z,5.00
2022-11-16T01:43:58.990Z,4.92
2022-11-16T01:46:30.378Z,4.90
2022-11-16T01:49:06.039Z,4.90
2022-11-16T01:51:37.985Z,4.92
2022-11-16T01:54:11.973Z,4.98
2022-11-16T01:56:45.435Z,5.00
2022-11-16T01:59:16.133Z,4.90
2022-11-16T02:01:47.120Z,4.90
2022-11-16T02:04:15.486Z,4.86
2022-11-16T02:07:07.355Z,4.80
2022-11-16T02:10:12.596Z,4.80
2022-11-16T02:13:22.675Z,4.80
2022-11-16T02:16:36.415Z,4.80
2022-11-16T02:19:52.876Z,4.80
2022-11-16T02:23:06.091Z,4.74
2022-11-16T02:26:28.509Z,4.80
2022-11-16T02:29:31.365Z,4.70
2022-11-16T02:32:33.369Z,4.70
2022-11-16T02:35:14.856Z,4.60
2022-11-16T02:37:53.859Z,4.60
2022-11-16T02:40:28.074Z,4.60
2022-11-16T02:43:09.798Z,4.50
2022-11-16T02:45:48.281Z,4.50
2022-11-16T02:48:39.175Z,4.50
2022-11-16T02:51:14.098Z,4.50
2022-11-16T02:54:03.314Z,4.40
2022-11-16T02:56:54.238Z,4.40
2022-11-16T02:59:53.420Z,4.40
2022-11-16T03:02:48.803Z,4.44
2022-11-16T03:05:33.565Z,4.50
2022-11-16T03:08:28.222Z,4.50
2022-11-16T03:11:25.252Z,4.58
2022-11-16T03:14:01.312Z,4.60
2022-11-16T03:16:52.948Z,4.60
2022-11-16T03:19:49.287Z,4.60
2022-11-16T03:23:05.389Z,4.60
2022-11-16T03:25:46.401Z,4.68
2022-11-16T03:28:46.656Z,4.60
2022-11-16T03:31:27.135Z,4.60
2022-11-16T03:34:01.851Z,4.60
2022-11-16T03:36:39.219Z,4.60
2022-11-16T03:39:22.588Z,4.60
2022-11-16T03:41:52.689Z,4.60
2022-11-16T03:44:30.442Z,4.58
2022-11-16T03:46:59.255Z,4.50
2022-11-16T03:49:32.147Z,4.50
2022-11-16T03:52:01.471Z,4.54
2022-11-16T03:54:29.631Z,4.50
2022-11-16T03:56:57.514Z,4.50
2022-11-16T03:59:25.279Z,4.50
2022-11-16T04:01:53.609Z,4.60
2022-11-16T04:04:40.538Z,4.50
2022-11-16T04:07:31.797Z,4.50
2022-11-16T04:10:20.021Z,4.58
2022-11-16T04:13:10.256Z,4.60
2022-11-16T04:16:01.093Z,4.60
2022-11-16T04:18:50.011Z,4.52
2022-11-16T04:22:01.522Z,4.50
2022-11-16T04:24:36.813Z,4.50
2022-11-16T04:27:32.000Z,4.58
2022-11-16T04:30:05.795Z,4.52
2022-11-16T04:32:52.745Z,4.50
2022-11-16T04:35:40.677Z,4.58
2022-11-16T04:38:10.056Z,4.60
2022-11-16T04:40:41.123Z,4.50
2022-11-16T04:43:09.026Z,4.54
2022-11-16T04:45:56.424Z,4.60
2022-11-16T04:48:25.507Z,4.60
2022-11-16T04:50:54.780Z,4.62
2022-11-16T04:53:34.447Z,4.60
2022-11-16T04:56:06.370Z,4.60
2022-11-16T04:58:37.805Z,4.60
2022-11-16T05:01:05.593Z,4.60
2022-11-16T05:03:34.626Z,4.60
2022-11-16T05:06:03.298Z,4.60
2022-11-16T05:08:32.879Z,4.52
2022-11-16T05:11:01.739Z,4.50
2022-11-16T05:13:30.963Z,4.50
2022-11-16T05:15:59.346Z,4.56
2022-11-16T05:18:28.170Z,4.60
2022-11-16T05:21:02.094Z,4.60
2022-11-16T05:23:48.918Z,4.60
2022-11-16T05:26:17.717Z,4.60
2022-11-16T05:28:47.670Z,4.60
2022-11-16T05:31:15.808Z,4.60
2022-11-16T05:33:43.928Z,4.60
2022-11-16T05:36:12.055Z,4.60
2022-11-16T05:38:39.848Z,4.60
2022-11-16T05:41:12.366Z,4.66
2022-11-16T05:43:40.762Z,4.70
2022-11-16T05:46:09.864Z,4.70
2022-11-16T05:48:38.155Z,4.70
2022-11-16T05:51:08.940Z,4.70
2022-11-16T05:53:38.374Z,4.70
2022-11-16T05:56:08.535Z,4.70
2022-11-16T05:58:37.941Z,4.70
2022-11-16T06:01:12.666Z,4.70
2022-11-16T06:03:42.127Z,4.70
2022-11-16T06:06:10.329Z,4.68
2022-11-16T06:08:38.987Z,4.64
2022-11-16T06:11:10.231Z,4.60
2022-11-16T06:13:39.418Z,4.60
2022-11-16T06:16:11.240Z,4.60
2022-11-16T06:18:43.040Z,4.64
2022-11-16T06:21:13.827Z,4.70
2022-11-16T06:23:41.829Z,4.70
2022-11-16T06:26:10.229Z,4.70
2022-11-16T06:28:38.494Z,4.70
2022-11-16T06:31:08.718Z,4.70
2022-11-16T06:33:39.081Z,4.68
2022-11-16T06:36:08.538Z,4.60
2022-11-16T06:38:37.022Z,4.70
2022-11-16T06:41:06.654Z,4.68
2022-11-16T06:43:38.481Z,4.60
2022-11-16T06:46:08.920Z,4.60
2022-11-16T06:48:38.401Z,4.60
2022-11-16T06:51:08.753Z,4.60
2022-11-16T06:53:39.243Z,4.60
2022-11-16T06:56:10.553Z,4.60
2022-11-16T06:58:42.624Z,4.54
2022-11-16T07:01:14.565Z,4.50
2022-11-16T07:03:45.524Z,4.50
2022-11-16T07:06:14.988Z,4.50
2022-11-16T07:08:46.700Z,4.50
2022-11-16T07:11:16.417Z,4.50
2022-11-16T07:13:49.427Z,4.52
2022-11-16T07:16:20.750Z,4.60
2022-11-16T07:18:51.341Z,4.60
2022-11-16T07:24:16.048Z,4.58
2022-11-16T07:26:47.354Z,4.56
2022-11-16T07:29:16.827Z,4.60
2022-11-16T07:31:48.772Z,4.60
2022-11-16T07:34:17.297Z,4.60
2022-11-16T07:36:46.753Z,4.60
2022-11-16T07:39:14.665Z,4.50
2022-11-16T07:41:42.990Z,4.50
2022-11-16T07:44:12.387Z,4.50
2022-11-16T07:46:48.586Z,4.50
2022-11-16T07:49:21.270Z,4.50
2022-11-16T07:51:52.928Z,4.50
2022-11-16T07:54:22.169Z,4.50
2022-11-16T07:56:53.092Z,4.50
2022-11-16T07:59:22.813Z,4.52
2022-11-16T08:01:53.588Z,4.60
2022-11-16T08:04:24.226Z,4.52
2022-11-16T08:06:54.317Z,4.50
2022-11-16T08:09:24.157Z,4.58
2022-11-16T08:11:52.534Z,4.60
2022-11-16T08:14:20.857Z,4.60
2022-11-16T08:16:50.572Z,4.50
2022-11-16T08:19:22.839Z,4.50
2022-11-16T08:21:51.406Z,4.52
2022-11-16T08:24:23.347Z,4.60
2022-11-16T08:26:58.580Z,4.60
2022-11-16T08:29:27.602Z,4.60
2022-11-16T08:31:57.428Z,4.60
2022-11-16T08:34:25.324Z,4.54
2022-11-16T08:36:54.171Z,4.60
2022-11-16T08:39:23.526Z,4.60
2022-11-16T08:41:51.411Z,4.60
2022-11-16T08:44:20.639Z,4.60
2022-11-16T08:46:50.328Z,4.60
2022-11-16T08:49:22.126Z,4.60
2022-11-16T08:51:51.047Z,4.60
2022-11-16T08:54:21.033Z,4.60
2022-11-16T08:56:54.166Z,4.60
2022-11-16T08:59:22.072Z,4.60
2022-11-16T09:01:50.317Z,4.60
2022-11-16T09:04:19.057Z,4.60
2022-11-16T09:06:47.455Z,4.64
2022-11-16T09:09:23.304Z,4.70
2022-11-16T09:11:55.786Z,4.70
2022-11-16T09:14:23.646Z,4.70
2022-11-16T09:16:52.700Z,4.70
2022-11-16T09:19:21.225Z,4.70
2022-11-16T09:21:50.860Z,4.70
2022-11-16T09:24:18.664Z,4.70
2022-11-16T09:26:48.413Z,4.70
2022-11-16T09:29:16.887Z,4.70
2022-11-16T09:31:47.861Z,4.70
2022-11-16T09:34:16.217Z,4.70
2022-11-16T09:36:44.572Z,4.70
2022-11-16T09:39:32.205Z,4.70
2022-11-16T09:42:44.951Z,4.70
2022-11-16T09:45:23.250Z,4.70
2022-11-16T09:47:59.704Z,4.70
2022-11-16T09:50:51.905Z,4.80
2022-11-16T09:53:22.695Z,4.80
2022-11-16T09:56:21.883Z,4.74
2022-11-16T09:59:16.683Z,4.80
2022-11-16T10:02:48.205Z,4.80
2022-11-16T10:06:06.423Z,4.80
2022-11-16T10:08:56.956Z,4.90
2022-11-16T10:11:51.219Z,4.90
2022-11-16T10:14:48.771Z,4.90
2022-11-16T10:17:46.666Z,4.90
2022-11-16T10:21:07.879Z,4.90
2022-11-16T10:24:24.253Z,4.90
2022-11-16T10:27:23.831Z,4.90
2022-11-16T10:30:13.782Z,4.90
2022-11-16T10:33:25.940Z,4.90
2022-11-16T10:35:54.700Z,4.92
2022-11-16T10:38:33.864Z,4.96
2022-11-16T10:41:34.190Z,4.98
2022-11-16T10:44:22.405Z,4.90
2022-11-16T10:47:09.591Z,4.90
2022-11-16T10:49:56.890Z,4.88
2022-11-16T10:52:26.119Z,4.82
2022-11-16T10:54:55.991Z,4.80
2022-11-16T10:58:16.919Z,4.80
2022-11-16T11:00:54.221Z,4.80
2022-11-16T11:03:34.428Z,4.80
2022-11-16T11:06:03.036Z,4.80
2022-11-16T11:08:33.444Z,4.80
2022-11-16T11:11:38.264Z,4.80
2022-11-16T11:14:15.817Z,4.80
2022-11-16T11:16:48.148Z,4.80
2022-11-16T11:19:31.716Z,4.80
2022-11-16T11:22:01.029Z,4.80
2022-11-16T11:24:43.767Z,4.84
2022-11-16T11:27:36.231Z,4.90
2022-11-16T11:30:20.559Z,4.80
2022-11-16T11:32:53.213Z,4.88
2022-11-16T11:35:46.846Z,4.90
2022-11-16T11:38:21.579Z,4.90
2022-11-16T11:41:06.677Z,4.90
2022-11-16T11:43:42.461Z,4.82
2022-11-16T11:46:47.539Z,4.90
2022-11-16T11:49:33.634Z,4.90
2022-11-16T11:52:24.031Z,4.90
2022-11-16T11:55:00.348Z,4.90
2022-11-16T11:57:33.425Z,4.90
2022-11-16T12:00:07.015Z,4.90
2022-11-16T12:03:22.734Z,4.90
2022-11-16T12:06:14.915Z,4.90
2022-11-16T12:09:30.894Z,4.90
2022-11-16T12:12:52.400Z,4.90
2022-11-16T12:16:00.978Z,4.90
2022-11-16T12:19:05.405Z,4.90
2022-11-16T12:22:16.168Z,4.80
2022-11-16T12:25:20.375Z,4.80
2022-11-16T12:28:08.164Z,4.90
2022-11-16T12:31:20.334Z,4.90
2022-11-16T12:34:13.549Z,4.90
2022-11-16T12:37:30.507Z,4.90
2022-11-16T12:41:10.633Z,4.90
2022-11-16T12:44:10.303Z,4.90
2022-11-16T12:47:24.567Z,4.92
2022-11-16T12:50:29.868Z,4.90
2022-11-16T12:53:58.075Z,4.90
2022-11-16T12:57:00.176Z,4.90
2022-11-16T12:59:57.849Z,5.00
2022-11-16T13:02:59.942Z,5.00
2022-11-16T13:06:21.382Z,5.04
2022-11-16T13:09:29.740Z,5.00
2022-11-16T13:12:14.402Z,5.00
2022-11-16T13:14:51.179Z,5.00
2022-11-16T13:17:39.085Z,5.00
2022-11-16T13:20:28.672Z,5.00
2022-11-16T13:23:43.596Z,5.00
2022-11-16T13:26:53.022Z,5.00
2022-11-16T13:29:40.153Z,5.00
2022-11-16T13:32:34.865Z,5.00
2022-11-16T13:35:16.550Z,4.92
2022-11-16T13:37:51.822Z,4.90
2022-11-16T13:40:29.580Z,4.80
2022-11-16T13:43:11.221Z,4.80
2022-11-16T13:46:06.164Z,4.84
2022-11-16T13:48:38.427Z,4.90
2022-11-16T13:51:24.753Z,4.86
2022-11-16T13:56:50.721Z,4.84
2022-11-16T13:59:30.769Z,4.90
2022-11-16T14:02:38.721Z,4.90
2022-11-16T14:05:15.616Z,4.90
2022-11-16T14:07:52.146Z,4.80
2022-11-16T14:10:38.238Z,4.80
2022-11-16T14:13:37.979Z,4.90
2022-11-16T14:16:17.594Z,4.90
2022-11-16T14:19:03.518Z,4.90
2022-11-16T14:22:17.152Z,4.90
2022-11-16T14:25:08.286Z,4.90
2022-11-16T14:27:57.582Z,4.90
2022-11-16T14:30:51.329Z,4.90
2022-11-16T14:33:39.593Z,4.90
2022-11-16T14:36:12.465Z,4.80
2022-11-16T14:38:46.822Z,4.80
2022-11-16T14:41:23.607Z,4.80
2022-11-16T14:43:56.665Z,4.80
2022-11-16T14:46:29.983Z,4.70
2022-11-16T14:49:05.836Z,4.70
2022-11-16T14:51:48.829Z,4.60
2022-11-16T14:54:47.226Z,4.60
2022-11-16T14:57:22.810Z,4.60
2022-11-16T15:00:24.517Z,4.60
2022-11-16T15:03:02.555Z,4.52
2022-11-16T15:05:37.995Z,4.50
2022-11-16T15:08:21.058Z,4.50
2022-11-16T15:10:52.539Z,4.50
2022-11-16T15:13:27.094Z,4.40
2022-11-16T15:16:23.174Z,4.42
2022-11-16T15:19:02.523Z,4.50
2022-11-16T15:21:32.645Z,4.40
2022-11-16T15:24:28.620Z,4.40
2022-11-16T15:26:53.386Z,4.40
2022-11-16T15:29:26.341Z,4.40
2022-11-16T15:31:56.893Z,4.42
2022-11-16T15:34:36.890Z,4.40
2022-11-16T15:37:12.304Z,4.40
2022-11-16T15:39:42.879Z,4.40
2022-11-16T15:42:22.702Z,4.40
2022-11-16T15:44:52.951Z,4.40
2022-11-16T15:47:27.605Z,4.46
2022-11-16T15:49:57.279Z,4.50
2022-11-16T15:52:44.967Z,4.50
2022-11-16T15:55:36.966Z,4.50
2022-11-16T15:58:30.647Z,4.50
2022-11-16T16:00:59.510Z,4.50
2022-11-16T16:03:34.817Z,4.50
2022-11-16T16:06:05.823Z,4.50
2022-11-16T16:08:36.100Z,4.50
2022-11-16T16:11:26.796Z,4.50
2022-11-16T16:14:04.961Z,4.50
2022-11-16T16:16:41.176Z,4.50
2022-11-16T16:19:56.613Z,4.50
2022-11-16T16:22:37.361Z,4.50
2022-11-16T16:25:25.931Z,4.50
2022-11-16T16:27:54.044Z,4.50
2022-11-16T16:30:21.960Z,4.50
2022-11-16T16:32:53.952Z,4.56
2022-11-16T16:35:27.205Z,4.50
2022-11-16T16:38:01.293Z,4.50
2022-11-16T16:40:31.505Z,4.60
2022-11-16T16:43:04.520Z,4.60
2022-11-16T16:45:43.532Z,4.56
2022-11-16T16:48:17.868Z,4.50
2022-11-16T16:50:46.454Z,4.54
2022-11-16T16:53:18.563Z,4.54
2022-11-16T16:55:47.776Z,4.50
2022-11-16T16:58:17.912Z,4.50
2022-11-16T17:00:46.602Z,4.50
2022-11-16T17:03:17.714Z,4.50
2022-11-16T17:05:47.669Z,4.50
2022-11-16T17:08:15.493Z,4.50
2022-11-16T17:10:43.743Z,4.50
2022-11-16T17:13:14.988Z,4.50
2022-11-16T17:15:44.744Z,4.50
2022-11-16T17:18:17.447Z,4.50
2022-11-16T17:20:49.658Z,4.50
2022-11-16T17:23:18.867Z,4.50
2022-11-16T17:25:47.036Z,4.50
2022-11-16T17:28:15.330Z,4.56
2022-11-16T17:30:45.471Z,4.60
2022-11-16T17:33:14.346Z,4.58
2022-11-16T17:35:58.174Z,4.58
2022-11-16T17:38:27.335Z,4.52
2022-11-16T17:41:15.018Z,4.50
2022-11-16T17:43:45.905Z,4.50
2022-11-16T17:46:19.487Z,4.52
2022-11-16T17:48:49.912Z,4.50
2022-11-16T17:51:24.317Z,4.50
2022-11-16T17:53:57.978Z,4.60
2022-11-16T17:56:29.137Z,4.60
2022-11-16T18:02:14.865Z,4.60
2022-11-16T18:04:49.626Z,4.60
2022-11-16T18:07:20.852Z,4.60
2022-11-16T18:10:00.083Z,4.60
2022-11-16T18:12:29.868Z,4.60
2022-11-16T18:15:27.323Z,4.64
2022-11-16T18:17:54.713Z,4.66
2022-11-16T18:20:28.756Z,4.60
2022-11-16T18:22:58.558Z,4.70
2022-11-16T18:25:29.664Z,4.70
2022-11-16T18:27:58.440Z,4.70
2022-11-16T18:30:31.318Z,4.70
2022-11-16T18:33:01.738Z,4.60
2022-11-16T18:35:31.183Z,4.60
2022-11-16T18:37:59.876Z,4.60
2022-11-16T18:40:32.818Z,4.50
2022-11-16T18:43:03.026Z,4.50
2022-11-16T18:45:34.033Z,4.40
2022-11-16T18:48:11.556Z,4.40
2022-11-16T18:50:44.211Z,4.30
2022-11-16T18:53:16.078Z,4.30
2022-11-16T18:56:11.578Z,4.30
2022-11-16T18:58:52.316Z,4.36
2022-11-16T19:01:25.670Z,4.32
2022-11-16T19:03:56.607Z,4.30
2022-11-16T19:06:26.073Z,4.30
2022-11-16T19:09:06.320Z,4.30
2022-11-16T19:11:38.152Z,4.30
2022-11-16T19:14:12.712Z,4.30
2022-11-16T19:16:55.627Z,4.30
2022-11-16T19:19:33.336Z,4.30
2022-11-16T19:22:03.065Z,4.40
2022-11-16T19:24:33.983Z,4.40
2022-11-16T19:27:11.222Z,4.46
2022-11-16T19:29:46.390Z,4.40
2022-11-16T19:32:17.595Z,4.40
2022-11-16T19:34:46.966Z,4.40
2022-11-16T19:37:23.351Z,4.40
2022-11-16T19:39:58.626Z,4.40
2022-11-16T19:42:30.108Z,4.40
2022-11-16T19:44:58.524Z,4.40
2022-11-16T19:47:48.499Z,4.40
2022-11-16T19:50:17.145Z,4.40
2022-11-16T19:52:46.902Z,4.36
2022-11-16T19:55:15.559Z,4.34
2022-11-16T19:57:47.156Z,4.38
2022-11-16T20:00:19.044Z,4.40
2022-11-16T20:02:51.703Z,4.40
2022-11-16T20:05:26.380Z,4.40
2022-11-16T20:07:57.850Z,4.38
2022-11-16T20:10:31.021Z,4.30
2022-11-16T20:13:09.568Z,4.30
2022-11-16T20:15:41.799Z,4.40
2022-11-16T20:18:13.110Z,4.40
2022-11-16T20:20:42.682Z,4.40
2022-11-16T20:23:16.012Z,4.40
2022-11-16T20:25:50.424Z,4.36
2022-11-16T20:28:26.145Z,4.38
2022-11-16T20:30:57.644Z,4.34
2022-11-16T20:39:30.854Z,4.40
2022-11-16T20:42:10.455Z,4.40
2022-11-16T20:44:40.637Z,4.40
2022-11-16T20:47:11.825Z,4.30
2022-11-16T20:49:52.055Z,4.30
2022-11-16T20:52:41.245Z,4.30
2022-11-16T20:55:23.571Z,4.40
2022-11-16T20:58:01.397Z,4.40
2022-11-16T21:00:39.998Z,4.34
2022-11-16T21:03:13.763Z,4.30
2022-11-16T21:06:24.261Z,4.30
2022-11-16T21:09:06.451Z,4.30
2022-11-16T21:11:57.918Z,4.30
2022-11-16T21:14:37.194Z,4.38
2022-11-16T21:17:09.171Z,4.34
2022-11-16T21:20:20.162Z,4.34
2022-11-16T21:22:48.032Z,4.30
2022-11-16T21:28:22.707Z,4.36
2022-11-16T21:31:18.567Z,4.30
2022-11-16T21:33:51.459Z,4.38
2022-11-16T21:36:37.530Z,4.40
2022-11-16T21:39:08.619Z,4.30
2022-11-16T21:41:42.403Z,4.30
2022-11-16T21:44:15.777Z,4.30
2022-11-16T21:46:45.589Z,4.34
2022-11-16T21:49:23.842Z,4.36
2022-11-16T21:51:58.674Z,4.38
2022-11-16T21:54:47.135Z,4.40
2022-11-16T21:57:18.448Z,4.40
2022-11-16T21:59:49.785Z,4.40
2022-11-16T22:02:28.251Z,4.40
2022-11-16T22:05:16.995Z,4.36
2022-11-16T22:07:47.377Z,4.30
2022-11-16T22:10:18.214Z,4.30
2022-11-16T22:12:50.137Z,4.30
2022-11-16T22:15:25.007Z,4.30
2022-11-16T22:17:58.272Z,4.30
2022-11-16T22:20:32.314Z,4.30
2022-11-16T22:23:08.177Z,4.30
2022-11-16T22:25:43.522Z,4.30
2022-11-16T22:28:20.512Z,4.30
2022-11-16T22:31:23.511Z,4.30
2022-11-16T22:33:57.879Z,4.30
2022-11-16T22:36:52.037Z,4.30
2022-11-16T22:39:35.016Z,4.30
2022-11-16T22:42:10.374Z,4.30
2022-11-16T22:44:39.691Z,4.30
2022-11-16T22:47:16.356Z,4.28
2022-11-16T22:52:30.872Z,4.30
2022-11-16T22:55:08.124Z,4.30
2022-11-16T22:57:57.177Z,4.30
2022-11-16T23:00:41.794Z,4.30
2022-11-16T23:03:13.388Z,4.30
2022-11-16T23:05:49.196Z,4.30
2022-11-16T23:08:28.319Z,4.28
2022-11-16T23:11:25.223Z,4.20
2022-11-16T23:14:34.361Z,4.20
2022-11-16T23:17:07.201Z,4.20
2022-11-16T23:19:55.520Z,4.20
2022-11-16T23:22:42.986Z,4.12
2022-11-16T23:25:32.535Z,4.10
2022-11-16T23:28:15.272Z,4.10
2022-11-16T23:30:44.999Z,4.08
2022-11-16T23:33:15.947Z,4.00
2022-11-16T23:35:45.294Z,4.00
2022-11-16T23:38:14.349Z,4.00
2022-11-16T23:40:49.605Z,4.00
2022-11-16T23:43:42.257Z,4.00
2022-11-16T23:46:13.720Z,3.96
2022-11-16T23:48:46.583Z,3.90
2022-11-16T23:51:19.560Z,3.90
2022-11-16T23:53:48.083Z,3.90
2022-11-16T23:56:21.032Z,3.88
2022-11-16T23:58:55.249Z,3.82
